sensor_id;sensor_type;location;lat;lon;timestamp;P1;durP1;ratioP1;P2;durP2;ratioP2
61411;SDS011;47278;49.732;7.690;2023-03-20T00:03:55;21.88;;;13.73;;
61411;SDS011;47278;49.732;7.690;2023-03-20T00:06:22;15.90;;;12.48;;
61411;SDS011;47278;49.732;7.690;2023-03-20T00:08:50;15.63;;;11.32;;
61411;SDS011;47278;49.732;7.690;2023-03-20T00:11:27;14.80;;;11.38;;
61411;SDS011;47278;49.732;7.690;2023-03-20T00:13:55;20.52;;;11.63;;
61411;SDS011;47278;49.732;7.690;2023-03-20T00:16:24;15.60;;;11.38;;
61411;SDS011;47278;49.732;7.690;2023-03-20T00:18:56;16.58;;;11.23;;
61411;SDS011;47278;49.732;7.690;2023-03-20T00:21:22;15.60;;;11.32;;
61411;SDS011;47278;49.732;7.690;2023-03-20T00:23:48;18.70;;;11.85;;
61411;SDS011;47278;49.732;7.690;2023-03-20T00:26:14;15.40;;;12.13;;
61411;SDS011;47278;49.732;7.690;2023-03-20T00:28:44;17.23;;;11.75;;
61411;SDS011;47278;49.732;7.690;2023-03-20T00:33:46;14.57;;;11.32;;
61411;SDS011;47278;49.732;7.690;2023-03-20T00:36:12;14.32;;;10.93;;
61411;SDS011;47278;49.732;7.690;2023-03-20T00:38:37;14.57;;;11.40;;
61411;SDS011;47278;49.732;7.690;2023-03-20T00:41:10;14.77;;;11.93;;
61411;SDS011;47278;49.732;7.690;2023-03-20T00:43:48;18.85;;;12.50;;
61411;SDS011;47278;49.732;7.690;2023-03-20T00:46:16;17.38;;;12.38;;
61411;SDS011;47278;49.732;7.690;2023-03-20T00:48:42;17.13;;;12.63;;
61411;SDS011;47278;49.732;7.690;2023-03-20T00:51:09;17.05;;;11.98;;
61411;SDS011;47278;49.732;7.690;2023-03-20T00:53:35;15.80;;;12.15;;
61411;SDS011;47278;49.732;7.690;2023-03-20T00:56:01;21.10;;;16.23;;
61411;SDS011;47278;49.732;7.690;2023-03-20T00:58:27;22.80;;;18.23;;
61411;SDS011;47278;49.732;7.690;2023-03-20T01:00:53;19.70;;;15.73;;
61411;SDS011;47278;49.732;7.690;2023-03-20T01:03:20;14.73;;;11.35;;
61411;SDS011;47278;49.732;7.690;2023-03-20T01:05:48;15.88;;;12.35;;
61411;SDS011;47278;49.732;7.690;2023-03-20T01:08:20;17.63;;;12.10;;
61411;SDS011;47278;49.732;7.690;2023-03-20T01:10:49;19.38;;;13.55;;
61411;SDS011;47278;49.732;7.690;2023-03-20T01:13:21;15.40;;;12.15;;
61411;SDS011;47278;49.732;7.690;2023-03-20T01:15:49;18.02;;;11.80;;
61411;SDS011;47278;49.732;7.690;2023-03-20T01:18:16;19.48;;;14.82;;
61411;SDS011;47278;49.732;7.690;2023-03-20T01:20:43;16.15;;;12.40;;
61411;SDS011;47278;49.732;7.690;2023-03-20T01:23:10;14.45;;;11.85;;
61411;SDS011;47278;49.732;7.690;2023-03-20T01:25:35;16.20;;;11.85;;
61411;SDS011;47278;49.732;7.690;2023-03-20T01:28:02;17.33;;;12.23;;
61411;SDS011;47278;49.732;7.690;2023-03-20T01:30:37;15.32;;;11.52;;
61411;SDS011;47278;49.732;7.690;2023-03-20T01:33:05;15.35;;;12.65;;
61411;SDS011;47278;49.732;7.690;2023-03-20T01:35:47;13.52;;;11.05;;
61411;SDS011;47278;49.732;7.690;2023-03-20T01:38:17;14.25;;;11.48;;
61411;SDS011;47278;49.732;7.690;2023-03-20T01:40:58;13.82;;;11.65;;
61411;SDS011;47278;49.732;7.690;2023-03-20T01:43:26;14.43;;;11.57;;
61411;SDS011;47278;49.732;7.690;2023-03-20T01:46:00;15.98;;;12.15;;
61411;SDS011;47278;49.732;7.690;2023-03-20T01:51:27;15.30;;;11.05;;
61411;SDS011;47278;49.732;7.690;2023-03-20T01:53:58;13.98;;;11.38;;
61411;SDS011;47278;49.732;7.690;2023-03-20T01:56:24;16.30;;;12.38;;
61411;SDS011;47278;49.732;7.690;2023-03-20T01:59:04;14.30;;;11.73;;
61411;SDS011;47278;49.732;7.690;2023-03-20T02:01:39;14.80;;;12.05;;
61411;SDS011;47278;49.732;7.690;2023-03-20T02:04:07;12.23;;;10.18;;
61411;SDS011;47278;49.732;7.690;2023-03-20T02:06:34;16.40;;;10.85;;
61411;SDS011;47278;49.732;7.690;2023-03-20T02:09:02;12.65;;;10.57;;
61411;SDS011;47278;49.732;7.690;2023-03-20T02:11:28;14.93;;;11.15;;
61411;SDS011;47278;49.732;7.690;2023-03-20T02:13:55;12.23;;;10.65;;
61411;SDS011;47278;49.732;7.690;2023-03-20T02:16:23;13.52;;;10.60;;
61411;SDS011;47278;49.732;7.690;2023-03-20T02:18:50;13.05;;;10.70;;
61411;SDS011;47278;49.732;7.690;2023-03-20T02:26:48;15.02;;;10.40;;
61411;SDS011;47278;49.732;7.690;2023-03-20T02:35:23;13.57;;;9.55;;
61411;SDS011;47278;49.732;7.690;2023-03-20T02:41:12;16.60;;;10.23;;
61411;SDS011;47278;49.732;7.690;2023-03-20T02:55:09;14.40;;;10.63;;
61411;SDS011;47278;49.732;7.690;2023-03-20T02:58:14;17.75;;;10.80;;
61411;SDS011;47278;49.732;7.690;2023-03-20T03:00:52;13.25;;;10.65;;
61411;SDS011;47278;49.732;7.690;2023-03-20T03:03:26;12.65;;;10.50;;
61411;SDS011;47278;49.732;7.690;2023-03-20T03:05:59;12.85;;;10.50;;
61411;SDS011;47278;49.732;7.690;2023-03-20T03:08:32;14.52;;;11.02;;
61411;SDS011;47278;49.732;7.690;2023-03-20T03:11:04;14.20;;;11.35;;
61411;SDS011;47278;49.732;7.690;2023-03-20T03:13:32;15.60;;;11.35;;
61411;SDS011;47278;49.732;7.690;2023-03-20T03:16:26;13.73;;;11.18;;
61411;SDS011;47278;49.732;7.690;2023-03-20T03:19:04;12.35;;;11.00;;
61411;SDS011;47278;49.732;7.690;2023-03-20T03:21:34;15.45;;;12.18;;
61411;SDS011;47278;49.732;7.690;2023-03-20T03:24:02;14.35;;;11.13;;
61411;SDS011;47278;49.732;7.690;2023-03-20T03:26:29;13.70;;;11.63;;
61411;SDS011;47278;49.732;7.690;2023-03-20T03:29:01;13.55;;;11.32;;
61411;SDS011;47278;49.732;7.690;2023-03-20T03:31:32;15.25;;;11.75;;
61411;SDS011;47278;49.732;7.690;2023-03-20T03:33:58;12.82;;;11.27;;
61411;SDS011;47278;49.732;7.690;2023-03-20T03:39:01;13.90;;;11.60;;
61411;SDS011;47278;49.732;7.690;2023-03-20T03:41:34;12.25;;;10.95;;
61411;SDS011;47278;49.732;7.690;2023-03-20T03:49:26;14.35;;;11.05;;
61411;SDS011;47278;49.732;7.690;2023-03-20T03:51:58;13.70;;;10.60;;
61411;SDS011;47278;49.732;7.690;2023-03-20T03:54:29;14.63;;;10.63;;
61411;SDS011;47278;49.732;7.690;2023-03-20T03:57:05;15.50;;;11.35;;
61411;SDS011;47278;49.732;7.690;2023-03-20T03:59:35;15.75;;;10.57;;
61411;SDS011;47278;49.732;7.690;2023-03-20T04:02:05;14.13;;;10.43;;
61411;SDS011;47278;49.732;7.690;2023-03-20T04:04:33;16.80;;;11.25;;
61411;SDS011;47278;49.732;7.690;2023-03-20T04:07:06;16.05;;;11.07;;
61411;SDS011;47278;49.732;7.690;2023-03-20T04:09:32;11.98;;;10.30;;
61411;SDS011;47278;49.732;7.690;2023-03-20T04:11:57;12.02;;;10.30;;
61411;SDS011;47278;49.732;7.690;2023-03-20T04:14:23;16.67;;;10.98;;
61411;SDS011;47278;49.732;7.690;2023-03-20T04:16:49;13.20;;;10.55;;
61411;SDS011;47278;49.732;7.690;2023-03-20T04:19:15;13.00;;;10.05;;
61411;SDS011;47278;49.732;7.690;2023-03-20T04:21:41;15.32;;;10.65;;
61411;SDS011;47278;49.732;7.690;2023-03-20T04:24:06;12.35;;;10.43;;
61411;SDS011;47278;49.732;7.690;2023-03-20T04:26:32;19.50;;;10.68;;
61411;SDS011;47278;49.732;7.690;2023-03-20T04:28:58;13.23;;;11.02;;
61411;SDS011;47278;49.732;7.690;2023-03-20T04:31:24;15.52;;;11.27;;
61411;SDS011;47278;49.732;7.690;2023-03-20T04:33:49;12.85;;;10.55;;
61411;SDS011;47278;49.732;7.690;2023-03-20T04:36:15;13.65;;;11.32;;
61411;SDS011;47278;49.732;7.690;2023-03-20T04:38:41;15.23;;;12.52;;
61411;SDS011;47278;49.732;7.690;2023-03-20T04:41:06;14.95;;;11.13;;
61411;SDS011;47278;49.732;7.690;2023-03-20T04:43:32;13.05;;;11.65;;
61411;SDS011;47278;49.732;7.690;2023-03-20T04:45:58;14.85;;;11.63;;
61411;SDS011;47278;49.732;7.690;2023-03-20T04:48:24;15.13;;;12.25;;
61411;SDS011;47278;49.732;7.690;2023-03-20T04:50:51;14.02;;;12.00;;
61411;SDS011;47278;49.732;7.690;2023-03-20T04:53:17;14.40;;;12.38;;
61411;SDS011;47278;49.732;7.690;2023-03-20T04:55:44;13.90;;;11.55;;
61411;SDS011;47278;49.732;7.690;2023-03-20T04:58:10;16.88;;;11.95;;
61411;SDS011;47278;49.732;7.690;2023-03-20T05:00:36;12.93;;;11.00;;
61411;SDS011;47278;49.732;7.690;2023-03-20T05:03:02;13.07;;;10.95;;
61411;SDS011;47278;49.732;7.690;2023-03-20T05:05:27;13.55;;;10.07;;
61411;SDS011;47278;49.732;7.690;2023-03-20T05:07:53;13.85;;;10.23;;
61411;SDS011;47278;49.732;7.690;2023-03-20T05:10:19;13.13;;;10.25;;
61411;SDS011;47278;49.732;7.690;2023-03-20T05:12:45;12.65;;;10.93;;
61411;SDS011;47278;49.732;7.690;2023-03-20T05:15:11;14.43;;;11.80;;
61411;SDS011;47278;49.732;7.690;2023-03-20T05:17:37;13.93;;;11.60;;
61411;SDS011;47278;49.732;7.690;2023-03-20T05:20:03;18.52;;;13.13;;
61411;SDS011;47278;49.732;7.690;2023-03-20T05:22:30;15.02;;;12.38;;
61411;SDS011;47278;49.732;7.690;2023-03-20T05:24:55;19.88;;;14.70;;
61411;SDS011;47278;49.732;7.690;2023-03-20T05:27:21;20.55;;;13.35;;
61411;SDS011;47278;49.732;7.690;2023-03-20T05:29:47;15.13;;;12.55;;
61411;SDS011;47278;49.732;7.690;2023-03-20T05:32:12;18.45;;;13.85;;
61411;SDS011;47278;49.732;7.690;2023-03-20T05:34:39;20.20;;;14.38;;
61411;SDS011;47278;49.732;7.690;2023-03-20T05:37:05;17.67;;;14.38;;
61411;SDS011;47278;49.732;7.690;2023-03-20T05:39:30;19.45;;;14.15;;
61411;SDS011;47278;49.732;7.690;2023-03-20T05:41:56;16.85;;;13.88;;
61411;SDS011;47278;49.732;7.690;2023-03-20T05:44:22;18.55;;;13.80;;
61411;SDS011;47278;49.732;7.690;2023-03-20T05:46:48;19.35;;;12.43;;
61411;SDS011;47278;49.732;7.690;2023-03-20T05:49:13;16.90;;;12.50;;
61411;SDS011;47278;49.732;7.690;2023-03-20T05:51:39;15.32;;;11.90;;
61411;SDS011;47278;49.732;7.690;2023-03-20T05:54:05;14.68;;;11.73;;
61411;SDS011;47278;49.732;7.690;2023-03-20T05:56:30;15.48;;;12.57;;
61411;SDS011;47278;49.732;7.690;2023-03-20T05:58:56;15.77;;;13.38;;
61411;SDS011;47278;49.732;7.690;2023-03-20T06:01:22;18.92;;;13.35;;
61411;SDS011;47278;49.732;7.690;2023-03-20T06:03:48;15.05;;;12.48;;
61411;SDS011;47278;49.732;7.690;2023-03-20T06:06:14;14.02;;;12.57;;
61411;SDS011;47278;49.732;7.690;2023-03-20T06:08:40;14.77;;;12.50;;
61411;SDS011;47278;49.732;7.690;2023-03-20T06:11:06;13.15;;;11.35;;
61411;SDS011;47278;49.732;7.690;2023-03-20T06:13:32;15.18;;;12.77;;
61411;SDS011;47278;49.732;7.690;2023-03-20T06:15:58;16.25;;;12.18;;
61411;SDS011;47278;49.732;7.690;2023-03-20T06:18:24;14.52;;;12.73;;
61411;SDS011;47278;49.732;7.690;2023-03-20T06:20:54;15.52;;;12.52;;
61411;SDS011;47278;49.732;7.690;2023-03-20T06:23:20;16.98;;;13.18;;
61411;SDS011;47278;49.732;7.690;2023-03-20T06:25:46;15.45;;;12.68;;
61411;SDS011;47278;49.732;7.690;2023-03-20T06:28:12;16.50;;;13.55;;
61411;SDS011;47278;49.732;7.690;2023-03-20T06:30:38;17.35;;;14.30;;
61411;SDS011;47278;49.732;7.690;2023-03-20T06:33:06;17.52;;;14.23;;
61411;SDS011;47278;49.732;7.690;2023-03-20T06:35:32;19.67;;;15.18;;
61411;SDS011;47278;49.732;7.690;2023-03-20T06:37:58;19.52;;;15.18;;
61411;SDS011;47278;49.732;7.690;2023-03-20T06:40:24;17.05;;;14.73;;
61411;SDS011;47278;49.732;7.690;2023-03-20T06:42:51;19.52;;;15.32;;
61411;SDS011;47278;49.732;7.690;2023-03-20T06:45:18;18.42;;;15.43;;
61411;SDS011;47278;49.732;7.690;2023-03-20T06:47:44;17.30;;;14.63;;
61411;SDS011;47278;49.732;7.690;2023-03-20T06:50:11;22.13;;;15.05;;
61411;SDS011;47278;49.732;7.690;2023-03-20T06:52:37;17.95;;;14.75;;
61411;SDS011;47278;49.732;7.690;2023-03-20T06:55:03;16.27;;;13.60;;
61411;SDS011;47278;49.732;7.690;2023-03-20T06:57:30;18.58;;;14.07;;
61411;SDS011;47278;49.732;7.690;2023-03-20T06:59:56;18.75;;;14.65;;
61411;SDS011;47278;49.732;7.690;2023-03-20T07:02:22;19.75;;;14.55;;
61411;SDS011;47278;49.732;7.690;2023-03-20T07:04:48;17.20;;;14.68;;
61411;SDS011;47278;49.732;7.690;2023-03-20T07:07:14;19.38;;;14.98;;
61411;SDS011;47278;49.732;7.690;2023-03-20T07:09:39;22.77;;;17.83;;
61411;SDS011;47278;49.732;7.690;2023-03-20T07:12:08;20.42;;;16.45;;
61411;SDS011;47278;49.732;7.690;2023-03-20T07:14:38;27.50;;;22.30;;
61411;SDS011;47278;49.732;7.690;2023-03-20T07:17:05;19.67;;;15.13;;
61411;SDS011;47278;49.732;7.690;2023-03-20T07:19:33;21.25;;;15.73;;
61411;SDS011;47278;49.732;7.690;2023-03-20T07:21:59;20.65;;;15.82;;
61411;SDS011;47278;49.732;7.690;2023-03-20T07:24:27;20.67;;;15.15;;
61411;SDS011;47278;49.732;7.690;2023-03-20T07:26:53;19.88;;;15.60;;
61411;SDS011;47278;49.732;7.690;2023-03-20T07:29:18;25.38;;;16.23;;
61411;SDS011;47278;49.732;7.690;2023-03-20T07:31:44;22.67;;;16.85;;
61411;SDS011;47278;49.732;7.690;2023-03-20T07:34:11;24.88;;;18.10;;
61411;SDS011;47278;49.732;7.690;2023-03-20T07:36:36;20.27;;;16.85;;
61411;SDS011;47278;49.732;7.690;2023-03-20T07:39:02;18.25;;;15.52;;
61411;SDS011;47278;49.732;7.690;2023-03-20T07:41:28;18.88;;;16.38;;
61411;SDS011;47278;49.732;7.690;2023-03-20T07:43:54;22.38;;;16.92;;
61411;SDS011;47278;49.732;7.690;2023-03-20T07:46:20;18.73;;;15.55;;
61411;SDS011;47278;49.732;7.690;2023-03-20T07:48:46;18.75;;;16.13;;
61411;SDS011;47278;49.732;7.690;2023-03-20T07:51:11;22.65;;;16.67;;
61411;SDS011;47278;49.732;7.690;2023-03-20T07:53:37;20.15;;;15.07;;
61411;SDS011;47278;49.732;7.690;2023-03-20T07:56:03;20.63;;;14.75;;
61411;SDS011;47278;49.732;7.690;2023-03-20T07:58:29;17.17;;;13.85;;
61411;SDS011;47278;49.732;7.690;2023-03-20T08:00:55;24.38;;;15.48;;
61411;SDS011;47278;49.732;7.690;2023-03-20T08:03:22;20.70;;;15.18;;
61411;SDS011;47278;49.732;7.690;2023-03-20T08:05:48;18.05;;;14.40;;
61411;SDS011;47278;49.732;7.690;2023-03-20T08:08:14;19.38;;;14.82;;
61411;SDS011;47278;49.732;7.690;2023-03-20T08:10:39;18.55;;;14.13;;
61411;SDS011;47278;49.732;7.690;2023-03-20T08:13:05;19.52;;;15.18;;
61411;SDS011;47278;49.732;7.690;2023-03-20T08:15:32;18.75;;;14.57;;
61411;SDS011;47278;49.732;7.690;2023-03-20T08:17:58;17.38;;;14.35;;
61411;SDS011;47278;49.732;7.690;2023-03-20T08:20:23;15.70;;;13.18;;
61411;SDS011;47278;49.732;7.690;2023-03-20T08:22:50;16.10;;;13.00;;
61411;SDS011;47278;49.732;7.690;2023-03-20T08:25:16;15.30;;;12.88;;
61411;SDS011;47278;49.732;7.690;2023-03-20T08:27:42;13.18;;;11.52;;
61411;SDS011;47278;49.732;7.690;2023-03-20T08:30:08;16.20;;;12.98;;
61411;SDS011;47278;49.732;7.690;2023-03-20T08:32:34;21.65;;;18.98;;
61411;SDS011;47278;49.732;7.690;2023-03-20T08:35:00;13.45;;;10.65;;
61411;SDS011;47278;49.732;7.690;2023-03-20T08:37:26;14.63;;;11.15;;
61411;SDS011;47278;49.732;7.690;2023-03-20T08:39:52;14.70;;;11.75;;
61411;SDS011;47278;49.732;7.690;2023-03-20T08:42:18;16.42;;;12.13;;
61411;SDS011;47278;49.732;7.690;2023-03-20T08:44:43;17.50;;;12.57;;
61411;SDS011;47278;49.732;7.690;2023-03-20T08:47:09;16.73;;;12.40;;
61411;SDS011;47278;49.732;7.690;2023-03-20T08:49:36;17.92;;;12.75;;
61411;SDS011;47278;49.732;7.690;2023-03-20T08:52:02;18.02;;;12.73;;
61411;SDS011;47278;49.732;7.690;2023-03-20T08:54:28;15.65;;;12.02;;
61411;SDS011;47278;49.732;7.690;2023-03-20T08:56:54;19.35;;;13.05;;
61411;SDS011;47278;49.732;7.690;2023-03-20T08:59:19;17.13;;;11.65;;
61411;SDS011;47278;49.732;7.690;2023-03-20T09:01:45;15.30;;;11.80;;
61411;SDS011;47278;49.732;7.690;2023-03-20T09:04:11;15.52;;;11.00;;
61411;SDS011;47278;49.732;7.690;2023-03-20T09:06:38;13.98;;;10.88;;
61411;SDS011;47278;49.732;7.690;2023-03-20T09:09:05;14.60;;;10.75;;
61411;SDS011;47278;49.732;7.690;2023-03-20T09:11:31;14.13;;;9.18;;
61411;SDS011;47278;49.732;7.690;2023-03-20T09:13:57;12.82;;;9.18;;
61411;SDS011;47278;49.732;7.690;2023-03-20T09:16:23;12.45;;;9.70;;
61411;SDS011;47278;49.732;7.690;2023-03-20T09:18:49;12.98;;;8.63;;
61411;SDS011;47278;49.732;7.690;2023-03-20T09:21:15;10.30;;;8.25;;
61411;SDS011;47278;49.732;7.690;2023-03-20T09:23:41;10.07;;;8.10;;
61411;SDS011;47278;49.732;7.690;2023-03-20T09:26:06;9.48;;;8.00;;
61411;SDS011;47278;49.732;7.690;2023-03-20T09:28:32;10.38;;;8.00;;
61411;SDS011;47278;49.732;7.690;2023-03-20T09:30:58;9.73;;;8.23;;
61411;SDS011;47278;49.732;7.690;2023-03-20T09:33:25;9.18;;;7.78;;
61411;SDS011;47278;49.732;7.690;2023-03-20T09:35:51;9.57;;;8.05;;
61411;SDS011;47278;49.732;7.690;2023-03-20T09:38:16;9.15;;;7.28;;
61411;SDS011;47278;49.732;7.690;2023-03-20T09:51:43;7.25;;;5.53;;
61411;SDS011;47278;49.732;7.690;2023-03-20T09:54:46;8.00;;;6.57;;
61411;SDS011;47278;49.732;7.690;2023-03-20T09:57:06;7.22;;;6.38;;
61411;SDS011;47278;49.732;7.690;2023-03-20T09:59:58;8.15;;;5.38;;
61411;SDS011;47278;49.732;7.690;2023-03-20T10:02:47;6.15;;;4.20;;
61411;SDS011;47278;49.732;7.690;2023-03-20T10:05:26;6.65;;;4.45;;
61411;SDS011;47278;49.732;7.690;2023-03-20T10:07:56;5.22;;;4.45;;
61411;SDS011;47278;49.732;7.690;2023-03-20T10:10:26;5.78;;;4.15;;
61411;SDS011;47278;49.732;7.690;2023-03-20T10:16:00;4.22;;;3.13;;
61411;SDS011;47278;49.732;7.690;2023-03-20T10:18:37;5.43;;;4.30;;
61411;SDS011;47278;49.732;7.690;2023-03-20T10:21:11;4.97;;;3.38;;
61411;SDS011;47278;49.732;7.690;2023-03-20T10:24:01;3.97;;;3.47;;
61411;SDS011;47278;49.732;7.690;2023-03-20T10:26:29;6.00;;;3.70;;
61411;SDS011;47278;49.732;7.690;2023-03-20T10:29:05;5.65;;;3.50;;
61411;SDS011;47278;49.732;7.690;2023-03-20T10:34:42;5.28;;;3.70;;
61411;SDS011;47278;49.732;7.690;2023-03-20T10:42:45;3.33;;;2.83;;
61411;SDS011;47278;49.732;7.690;2023-03-20T10:47:54;3.47;;;2.35;;
61411;SDS011;47278;49.732;7.690;2023-03-20T10:50:32;4.30;;;2.45;;
61411;SDS011;47278;49.732;7.690;2023-03-20T10:53:03;4.30;;;2.63;;
61411;SDS011;47278;49.732;7.690;2023-03-20T10:55:31;3.88;;;3.00;;
61411;SDS011;47278;49.732;7.690;2023-03-20T10:58:07;5.47;;;3.35;;
61411;SDS011;47278;49.732;7.690;2023-03-20T11:00:43;5.60;;;3.22;;
61411;SDS011;47278;49.732;7.690;2023-03-20T11:03:15;6.95;;;3.45;;
61411;SDS011;47278;49.732;7.690;2023-03-20T11:05:51;4.50;;;3.25;;
61411;SDS011;47278;49.732;7.690;2023-03-20T11:08:21;4.72;;;3.30;;
61411;SDS011;47278;49.732;7.690;2023-03-20T11:10:56;4.70;;;3.35;;
61411;SDS011;47278;49.732;7.690;2023-03-20T11:13:29;4.47;;;3.25;;
61411;SDS011;47278;49.732;7.690;2023-03-20T11:16:22;4.13;;;3.30;;
61411;SDS011;47278;49.732;7.690;2023-03-20T11:18:50;5.15;;;3.72;;
61411;SDS011;47278;49.732;7.690;2023-03-20T11:21:22;4.72;;;3.47;;
61411;SDS011;47278;49.732;7.690;2023-03-20T11:23:51;8.00;;;3.53;;
61411;SDS011;47278;49.732;7.690;2023-03-20T11:26:26;3.67;;;3.03;;
61411;SDS011;47278;49.732;7.690;2023-03-20T11:29:01;4.25;;;3.55;;
61411;SDS011;47278;49.732;7.690;2023-03-20T11:31:32;6.78;;;4.00;;
61411;SDS011;47278;49.732;7.690;2023-03-20T11:34:18;4.57;;;3.22;;
61411;SDS011;47278;49.732;7.690;2023-03-20T11:36:58;5.10;;;3.50;;
61411;SDS011;47278;49.732;7.690;2023-03-20T11:39:28;5.32;;;3.65;;
61411;SDS011;47278;49.732;7.690;2023-03-20T11:42:00;5.72;;;4.00;;
61411;SDS011;47278;49.732;7.690;2023-03-20T11:46:59;4.13;;;3.50;;
61411;SDS011;47278;49.732;7.690;2023-03-20T11:49:28;5.53;;;4.00;;
61411;SDS011;47278;49.732;7.690;2023-03-20T11:51:56;10.80;;;6.63;;
61411;SDS011;47278;49.732;7.690;2023-03-20T11:54:26;8.07;;;4.22;;
61411;SDS011;47278;49.732;7.690;2023-03-20T11:56:54;7.50;;;5.15;;
61411;SDS011;47278;49.732;7.690;2023-03-20T11:59:33;5.80;;;4.03;;
61411;SDS011;47278;49.732;7.690;2023-03-20T12:02:02;5.72;;;4.80;;
61411;SDS011;47278;49.732;7.690;2023-03-20T12:04:35;5.95;;;4.28;;
61411;SDS011;47278;49.732;7.690;2023-03-20T12:07:10;6.85;;;4.68;;
61411;SDS011;47278;49.732;7.690;2023-03-20T12:09:50;7.88;;;5.18;;
61411;SDS011;47278;49.732;7.690;2023-03-20T12:15:00;8.05;;;4.68;;
61411;SDS011;47278;49.732;7.690;2023-03-20T12:20:33;4.68;;;3.55;;
61411;SDS011;47278;49.732;7.690;2023-03-20T12:23:30;4.35;;;2.83;;
61411;SDS011;47278;49.732;7.690;2023-03-20T12:26:13;3.88;;;2.58;;
61411;SDS011;47278;49.732;7.690;2023-03-20T12:28:49;3.85;;;2.83;;
61411;SDS011;47278;49.732;7.690;2023-03-20T12:34:40;6.93;;;3.70;;
61411;SDS011;47278;49.732;7.690;2023-03-20T12:37:10;4.50;;;2.83;;
61411;SDS011;47278;49.732;7.690;2023-03-20T12:39:55;6.03;;;3.00;;
61411;SDS011;47278;49.732;7.690;2023-03-20T12:50:47;2.97;;;2.08;;
61411;SDS011;47278;49.732;7.690;2023-03-20T12:56:16;4.97;;;3.08;;
61411;SDS011;47278;49.732;7.690;2023-03-20T13:07:18;5.32;;;3.50;;
61411;SDS011;47278;49.732;7.690;2023-03-20T13:15:30;5.35;;;3.03;;
61411;SDS011;47278;49.732;7.690;2023-03-20T13:18:08;4.15;;;2.85;;
61411;SDS011;47278;49.732;7.690;2023-03-20T13:20:48;4.68;;;2.92;;
61411;SDS011;47278;49.732;7.690;2023-03-20T13:23:20;3.97;;;2.30;;
61411;SDS011;47278;49.732;7.690;2023-03-20T13:28:59;4.97;;;2.75;;
61411;SDS011;47278;49.732;7.690;2023-03-20T13:34:11;4.90;;;3.20;;
61411;SDS011;47278;49.732;7.690;2023-03-20T13:39:13;3.88;;;2.60;;
61411;SDS011;47278;49.732;7.690;2023-03-20T13:41:45;4.60;;;2.80;;
61411;SDS011;47278;49.732;7.690;2023-03-20T13:44:12;3.35;;;2.83;;
61411;SDS011;47278;49.732;7.690;2023-03-20T13:47:02;5.15;;;2.72;;
61411;SDS011;47278;49.732;7.690;2023-03-20T13:49:35;3.63;;;3.00;;
61411;SDS011;47278;49.732;7.690;2023-03-20T13:52:17;3.47;;;2.65;;
61411;SDS011;47278;49.732;7.690;2023-03-20T13:54:50;5.63;;;2.70;;
61411;SDS011;47278;49.732;7.690;2023-03-20T13:57:50;5.22;;;2.67;;
61411;SDS011;47278;49.732;7.690;2023-03-20T14:05:53;4.20;;;2.47;;
61411;SDS011;47278;49.732;7.690;2023-03-20T14:10:44;4.80;;;2.67;;
61411;SDS011;47278;49.732;7.690;2023-03-20T14:13:15;6.13;;;2.67;;
61411;SDS011;47278;49.732;7.690;2023-03-20T14:15:53;4.43;;;3.20;;
61411;SDS011;47278;49.732;7.690;2023-03-20T14:18:21;4.78;;;2.83;;
61411;SDS011;47278;49.732;7.690;2023-03-20T14:21:32;2.92;;;2.20;;
61411;SDS011;47278;49.732;7.690;2023-03-20T14:26:27;6.45;;;4.03;;
61411;SDS011;47278;49.732;7.690;2023-03-20T14:28:59;4.20;;;2.78;;
61411;SDS011;47278;49.732;7.690;2023-03-20T14:31:30;4.28;;;2.92;;
61411;SDS011;47278;49.732;7.690;2023-03-20T14:41:58;2.55;;;2.15;;
61411;SDS011;47278;49.732;7.690;2023-03-20T14:50:22;3.63;;;2.28;;
61411;SDS011;47278;49.732;7.690;2023-03-20T14:57:52;3.70;;;2.47;;
61411;SDS011;47278;49.732;7.690;2023-03-20T15:00:22;2.65;;;2.03;;
61411;SDS011;47278;49.732;7.690;2023-03-20T15:02:52;3.25;;;2.30;;
61411;SDS011;47278;49.732;7.690;2023-03-20T15:05:26;3.17;;;2.33;;
61411;SDS011;47278;49.732;7.690;2023-03-20T15:07:55;3.28;;;2.15;;
61411;SDS011;47278;49.732;7.690;2023-03-20T15:10:27;4.80;;;2.53;;
61411;SDS011;47278;49.732;7.690;2023-03-20T15:12:53;2.90;;;2.60;;
61411;SDS011;47278;49.732;7.690;2023-03-20T15:15:28;10.25;;;6.45;;
61411;SDS011;47278;49.732;7.690;2023-03-20T15:18:09;3.95;;;2.60;;
61411;SDS011;47278;49.732;7.690;2023-03-20T15:20:37;4.10;;;2.42;;
61411;SDS011;47278;49.732;7.690;2023-03-20T15:23:03;3.33;;;2.88;;
61411;SDS011;47278;49.732;7.690;2023-03-20T15:25:48;4.53;;;2.92;;
61411;SDS011;47278;49.732;7.690;2023-03-20T15:28:18;4.50;;;2.45;;
61411;SDS011;47278;49.732;7.690;2023-03-20T15:30:50;4.85;;;3.50;;
61411;SDS011;47278;49.732;7.690;2023-03-20T15:33:41;6.57;;;3.97;;
61411;SDS011;47278;49.732;7.690;2023-03-20T15:38:43;7.45;;;4.47;;
61411;SDS011;47278;49.732;7.690;2023-03-20T15:41:27;5.85;;;3.58;;
61411;SDS011;47278;49.732;7.690;2023-03-20T15:44:33;7.43;;;3.60;;
61411;SDS011;47278;49.732;7.690;2023-03-20T15:46:58;11.23;;;4.65;;
61411;SDS011;47278;49.732;7.690;2023-03-20T15:49:27;6.03;;;3.38;;
61411;SDS011;47278;49.732;7.690;2023-03-20T15:51:57;6.05;;;3.50;;
61411;SDS011;47278;49.732;7.690;2023-03-20T15:54:26;6.72;;;3.42;;
61411;SDS011;47278;49.732;7.690;2023-03-20T15:56:52;6.03;;;3.35;;
61411;SDS011;47278;49.732;7.690;2023-03-20T15:59:22;4.70;;;2.60;;
61411;SDS011;47278;49.732;7.690;2023-03-20T16:01:53;5.20;;;2.70;;
61411;SDS011;47278;49.732;7.690;2023-03-20T16:04:21;4.22;;;2.30;;
61411;SDS011;47278;49.732;7.690;2023-03-20T16:06:51;3.97;;;2.55;;
61411;SDS011;47278;49.732;7.690;2023-03-20T16:09:18;7.00;;;2.65;;
61411;SDS011;47278;49.732;7.690;2023-03-20T16:11:45;4.40;;;2.40;;
61411;SDS011;47278;49.732;7.690;2023-03-20T16:14:14;5.90;;;2.15;;
61411;SDS011;47278;49.732;7.690;2023-03-20T16:16:46;6.82;;;2.78;;
61411;SDS011;47278;49.732;7.690;2023-03-20T16:19:14;7.25;;;2.55;;
61411;SDS011;47278;49.732;7.690;2023-03-20T16:21:50;5.13;;;2.60;;
61411;SDS011;47278;49.732;7.690;2023-03-20T16:24:24;7.22;;;3.20;;
61411;SDS011;47278;49.732;7.690;2023-03-20T16:26:53;5.63;;;2.67;;
61411;SDS011;47278;49.732;7.690;2023-03-20T16:29:20;8.05;;;2.50;;
61411;SDS011;47278;49.732;7.690;2023-03-20T16:31:52;6.72;;;3.03;;
61411;SDS011;47278;49.732;7.690;2023-03-20T16:34:32;6.13;;;2.55;;
61411;SDS011;47278;49.732;7.690;2023-03-20T16:37:06;8.85;;;2.33;;
61411;SDS011;47278;49.732;7.690;2023-03-20T16:39:45;4.65;;;2.22;;
61411;SDS011;47278;49.732;7.690;2023-03-20T16:42:20;6.05;;;2.40;;
61411;SDS011;47278;49.732;7.690;2023-03-20T16:44:55;3.45;;;2.10;;
61411;SDS011;47278;49.732;7.690;2023-03-20T16:47:23;8.60;;;3.30;;
61411;SDS011;47278;49.732;7.690;2023-03-20T16:50:08;4.53;;;2.60;;
61411;SDS011;47278;49.732;7.690;2023-03-20T16:52:39;5.38;;;2.50;;
61411;SDS011;47278;49.732;7.690;2023-03-20T16:55:16;4.93;;;1.98;;
61411;SDS011;47278;49.732;7.690;2023-03-20T16:58:05;5.82;;;2.10;;
61411;SDS011;47278;49.732;7.690;2023-03-20T17:00:40;7.18;;;2.53;;
61411;SDS011;47278;49.732;7.690;2023-03-20T17:03:12;3.20;;;2.17;;
61411;SDS011;47278;49.732;7.690;2023-03-20T17:08:17;8.40;;;2.72;;
61411;SDS011;47278;49.732;7.690;2023-03-20T17:11:15;5.57;;;2.40;;
61411;SDS011;47278;49.732;7.690;2023-03-20T17:13:47;5.03;;;2.58;;
61411;SDS011;47278;49.732;7.690;2023-03-20T17:16:16;4.68;;;2.50;;
61411;SDS011;47278;49.732;7.690;2023-03-20T17:18:45;3.80;;;2.03;;